Time;durP1;ratioP1;P1;durP2;ratioP2;P2;SDS_P1;SDS_P2;PMS_P1;PMS_P2;Temp;Humidity;BMP_temperature;BMP_pressure;BME280_temperature;BME280_humidity;BME280_pressure;Samples;Min_cycle;Max_cycle;Signal;HPM_P1;HPM_P2
2023/03/23 00:00:59;;;;;;;;;;;20.30;58.10;;;;;;5052099;28;19951;-76
2023/03/23 00:03:25;;;;;;;;;;;20.20;57.80;;;;;;5052010;28;19962;-77
2023/03/23 00:05:51;;;;;;;;;;;20.20;58.00;;;;;;5051965;28;19915;-76
2023/03/23 00:08:20;;;;;;;;;;;20.40;58.10;;;;;;5051918;28;19913;-76
2023/03/23 00:10:52;;;;;;;;;;;20.30;58.00;;;;;;5051939;28;19923;-77
2023/03/23 00:13:20;;;;;;;;;;;20.40;58.00;;;;;;5051851;28;19921;-76
2023/03/23 00:15:48;;;;;;;;;;;20.20;57.60;;;;;;5051749;28;20300;-76
2023/03/23 00:18:21;;;;;;;;;;;20.30;57.70;;;;;;5051800;28;20352;-77
2023/03/23 00:20:48;;;;;;;;;;;20.20;57.40;;;;;;5051937;28;19928;-76
2023/03/23 00:23:18;;;;;;;;;;;20.20;57.70;;;;;;5051829;28;19913;-76
2023/03/23 00:25:48;;;;;;;;;;;20.20;57.70;;;;;;5051653;28;19965;-77
2023/03/23 00:28:15;;;;;;;;;;;20.10;57.80;;;;;;5051514;28;19913;-76
2023/03/23 00:30:44;;;;;;;;;;;20.10;57.90;;;;;;5051621;28;20349;-76
2023/03/23 00:33:12;;;;;;;;;;;20.10;57.90;;;;;;5052076;28;19909;-76
2023/03/23 00:35:40;;;;;;;;;;;20.10;58.00;;;;;;5051285;28;20396;-76
2023/03/23 00:38:06;;;;;;;;;;;20.10;58.10;;;;;;5051618;28;19912;-76
2023/03/23 00:40:35;;;;;;;;;;;20.00;58.20;;;;;;5051201;28;20384;-76
2023/03/23 00:43:03;;;;;;;;;;;20.00;58.20;;;;;;5033631;28;19919;-76
2023/03/23 00:45:30;;;;;;;;;;;20.00;58.20;;;;;;5051304;28;19908;-77
2023/03/23 00:47:56;;;;;;;;;;;20.00;58.20;;;;;;5051538;28;19986;-76
2023/03/23 00:50:23;;;;;;;;;;;20.00;58.30;;;;;;5033528;28;20376;-76
2023/03/23 00:52:52;;;;;;;;;;;20.00;58.40;;;;;;5033483;28;19909;-76
2023/03/23 00:55:18;;;;;;;;;;;20.00;58.50;;;;;;5033262;28;19948;-76
2023/03/23 00:57:44;;;;;;;;;;;20.00;58.50;;;;;;5051287;28;19959;-76
2023/03/23 01:00:10;;;;;;;;;;;20.00;58.50;;;;;;5033599;28;19916;-76
2023/03/23 01:02:36;;;;;;;;;;;20.00;58.40;;;;;;5037819;28;19942;-76
2023/03/23 01:05:04;;;;;;;;;;;20.10;58.50;;;;;;5037329;28;20397;-76
2023/03/23 01:07:31;;;;;;;;;;;20.00;58.30;;;;;;5055207;28;20388;-76
2023/03/23 01:09:57;;;;;;;;;;;20.00;58.20;;;;;;5055426;28;20407;-76
2023/03/23 01:12:24;;;;;;;;;;;20.00;58.20;;;;;;5055392;28;20011;-76
2023/03/23 01:14:51;;;;;;;;;;;20.10;58.20;;;;;;5055418;28;19915;-76
2023/03/23 01:17:18;;;;;;;;;;;20.10;58.20;;;;;;5055042;28;19912;-76
2023/03/23 01:19:44;;;;;;;;;;;20.10;58.20;;;;;;5004303;28;19920;-76
2023/03/23 01:22:10;;;;;;;;;;;20.10;58.00;;;;;;5055058;28;19909;-76
2023/03/23 01:24:36;;;;;;;;;;;20.10;58.00;;;;;;5055120;28;19916;-76
2023/03/23 01:27:06;;;;;;;;;;;20.10;58.00;;;;;;5054982;28;19912;-76
2023/03/23 01:29:33;;;;;;;;;;;20.00;57.80;;;;;;5037100;28;19937;-76
2023/03/23 01:32:00;;;;;;;;;;;20.10;58.00;;;;;;5055137;28;19919;-76
2023/03/23 01:34:26;;;;;;;;;;;20.00;58.00;;;;;;5012422;28;20071;-76
2023/03/23 01:36:52;;;;;;;;;;;19.90;58.00;;;;;;4996077;28;20011;-77
2023/03/23 01:39:18;;;;;;;;;;;20.00;58.10;;;;;;4996312;28;19917;-76
2023/03/23 01:41:44;;;;;;;;;;;20.00;58.10;;;;;;4996449;28;19914;-77
2023/03/23 01:44:18;;;;;;;;;;;19.90;58.20;;;;;;4996814;28;19910;-77
2023/03/23 01:46:54;;;;;;;;;;;19.90;58.30;;;;;;4996162;28;20317;-76
2023/03/23 01:49:42;;;;;;;;;;;19.90;58.50;;;;;;5012366;28;20457;-76
2023/03/23 01:52:26;;;;;;;;;;;19.90;58.50;;;;;;4996050;28;20013;-76
2023/03/23 01:54:57;;;;;;;;;;;19.80;58.40;;;;;;4956740;28;20337;-76
2023/03/23 01:57:26;;;;;;;;;;;19.80;58.50;;;;;;4957055;28;20378;-76
2023/03/23 01:59:55;;;;;;;;;;;19.80;58.50;;;;;;4957148;28;19922;-77
2023/03/23 02:02:27;;;;;;;;;;;19.80;58.60;;;;;;4956987;28;19913;-76
2023/03/23 02:04:58;;;;;;;;;;;19.90;58.70;;;;;;4984100;28;20324;-77
2023/03/23 02:07:25;;;;;;;;;;;19.80;58.60;;;;;;5012297;28;19914;-76
2023/03/23 02:09:52;;;;;;;;;;;19.80;58.60;;;;;;4995817;28;19909;-76
2023/03/23 02:12:18;;;;;;;;;;;19.90;58.70;;;;;;5014132;28;19925;-76
2023/03/23 02:14:46;;;;;;;;;;;19.80;58.50;;;;;;5034833;28;19913;-76
2023/03/23 02:17:15;;;;;;;;;;;19.80;58.40;;;;;;5034911;28;19915;-75
2023/03/23 02:19:59;;;;;;;;;;;19.90;58.40;;;;;;5051590;28;19933;-76
2023/03/23 02:22:39;;;;;;;;;;;19.90;58.30;;;;;;5051693;28;19909;-76
2023/03/23 02:25:08;;;;;;;;;;;19.90;58.30;;;;;;5037911;28;19959;-76
2023/03/23 02:27:49;;;;;;;;;;;19.80;58.20;;;;;;5074271;28;20312;-76
2023/03/23 02:30:22;;;;;;;;;;;20.00;58.30;;;;;;5072734;28;19912;-76
2023/03/23 02:32:57;;;;;;;;;;;19.90;58.20;;;;;;5074053;28;19915;-76
2023/03/23 02:35:43;;;;;;;;;;;19.90;58.20;;;;;;5072666;28;19967;-76
2023/03/23 02:38:15;;;;;;;;;;;19.80;58.00;;;;;;5055514;28;20338;-76
2023/03/23 02:40:42;;;;;;;;;;;19.90;58.20;;;;;;5072493;28;19916;-76
2023/03/23 02:43:10;;;;;;;;;;;19.80;58.20;;;;;;5072219;28;19912;-76
2023/03/23 02:45:37;;;;;;;;;;;19.80;58.20;;;;;;5073631;28;19920;-76
2023/03/23 02:48:04;;;;;;;;;;;19.80;58.20;;;;;;5073478;28;20364;-76
2023/03/23 02:50:31;;;;;;;;;;;19.70;58.20;;;;;;5073370;28;19952;-76
2023/03/23 02:52:58;;;;;;;;;;;19.80;58.20;;;;;;5073646;28;20418;-76
2023/03/23 02:55:26;;;;;;;;;;;19.70;58.30;;;;;;5071838;28;20435;-76
2023/03/23 02:57:53;;;;;;;;;;;19.70;58.30;;;;;;5072094;28;19916;-77
2023/03/23 03:00:19;;;;;;;;;;;19.70;58.30;;;;;;5071893;28;19924;-77
2023/03/23 03:02:47;;;;;;;;;;;19.70;58.40;;;;;;5072016;28;19984;-76
2023/03/23 03:05:36;;;;;;;;;;;19.80;58.40;;;;;;5073123;28;19916;-76
2023/03/23 03:08:08;;;;;;;;;;;19.70;58.40;;;;;;5071984;28;20264;-76
2023/03/23 03:10:42;;;;;;;;;;;19.70;58.50;;;;;;5072401;28;19912;-76
2023/03/23 03:13:13;;;;;;;;;;;19.70;58.60;;;;;;5071638;28;19921;-76
2023/03/23 03:15:44;;;;;;;;;;;19.60;58.50;;;;;;5071556;28;20359;-76
2023/03/23 03:18:18;;;;;;;;;;;19.70;58.50;;;;;;5072966;28;19908;-77
2023/03/23 03:20:47;;;;;;;;;;;19.70;58.40;;;;;;5072922;28;19951;-77
2023/03/23 03:23:15;;;;;;;;;;;19.70;58.40;;;;;;5070801;28;19947;-76
2023/03/23 03:25:47;;;;;;;;;;;19.90;58.40;;;;;;5071368;28;20050;-76
2023/03/23 03:28:17;;;;;;;;;;;19.70;58.30;;;;;;5072176;28;19912;-77
2023/03/23 03:30:45;;;;;;;;;;;19.70;58.30;;;;;;5071512;28;19908;-76
2023/03/23 03:33:12;;;;;;;;;;;19.80;58.20;;;;;;5071388;28;19915;-76
2023/03/23 03:35:40;;;;;;;;;;;19.80;58.20;;;;;;5071078;28;19912;-76
2023/03/23 03:38:08;;;;;;;;;;;19.70;58.10;;;;;;5049854;28;19995;-76
2023/03/23 03:40:34;;;;;;;;;;;19.80;58.10;;;;;;5049849;28;19924;-77
2023/03/23 03:43:01;;;;;;;;;;;19.80;58.00;;;;;;5033440;28;19915;-77
2023/03/23 03:45:27;;;;;;;;;;;19.80;57.90;;;;;;5033297;28;20299;-77
2023/03/23 03:47:53;;;;;;;;;;;19.70;58.10;;;;;;5049680;28;19992;-76
2023/03/23 03:50:18;;;;;;;;;;;19.90;58.20;;;;;;5049702;28;19948;-76
2023/03/23 03:52:44;;;;;;;;;;;19.70;58.20;;;;;;5049965;28;19916;-77
2023/03/23 03:55:11;;;;;;;;;;;19.70;58.30;;;;;;5016882;28;19962;-76
2023/03/23 03:57:41;;;;;;;;;;;19.70;58.40;;;;;;5049715;28;19923;-77
2023/03/23 04:00:41;;;;;;;;;;;19.60;58.20;;;;;;5029623;28;19921;-77
2023/03/23 04:03:08;;;;;;;;;;;19.60;58.30;;;;;;5013446;28;19916;-77
2023/03/23 04:05:44;;;;;;;;;;;19.60;58.40;;;;;;5013194;28;19920;-76
2023/03/23 04:08:11;;;;;;;;;;;19.60;58.50;;;;;;5013224;28;20398;-76
2023/03/23 04:10:37;;;;;;;;;;;19.50;58.60;;;;;;5029476;28;20339;-76
2023/03/23 04:13:07;;;;;;;;;;;19.60;58.60;;;;;;5013120;28;19921;-76
2023/03/23 04:15:38;;;;;;;;;;;19.50;58.60;;;;;;5029275;28;19959;-76
2023/03/23 04:18:05;;;;;;;;;;;19.50;58.70;;;;;;5029571;28;20004;-76
2023/03/23 04:20:32;;;;;;;;;;;19.60;58.70;;;;;;5013055;28;20002;-76
2023/03/23 04:23:00;;;;;;;;;;;19.60;58.80;;;;;;5012973;28;20510;-77
2023/03/23 04:25:27;;;;;;;;;;;19.50;58.80;;;;;;5013003;28;20308;-76
2023/03/23 04:27:54;;;;;;;;;;;19.60;58.80;;;;;;5012792;28;19913;-77
2023/03/23 04:30:30;;;;;;;;;;;19.60;58.70;;;;;;5029238;28;19923;-76
2023/03/23 04:33:15;;;;;;;;;;;19.50;58.60;;;;;;5013384;28;19924;-77
2023/03/23 04:35:47;;;;;;;;;;;19.50;58.70;;;;;;5027463;28;19948;-76
2023/03/23 04:38:23;;;;;;;;;;;19.70;58.50;;;;;;5070333;28;19908;-77
2023/03/23 04:40:54;;;;;;;;;;;19.80;58.20;;;;;;5070052;28;19969;-76
2023/03/23 04:43:41;;;;;;;;;;;19.70;58.10;;;;;;5070344;28;20391;-76
2023/03/23 04:46:19;;;;;;;;;;;19.70;58.00;;;;;;5069792;28;19938;-76
2023/03/23 04:48:47;;;;;;;;;;;19.80;57.70;;;;;;5070248;28;19930;-76
2023/03/23 04:51:19;;;;;;;;;;;19.80;57.90;;;;;;5070263;28;19940;-76
2023/03/23 04:53:48;;;;;;;;;;;19.80;57.90;;;;;;5072593;28;19914;-76
2023/03/23 04:56:14;;;;;;;;;;;19.80;57.80;;;;;;5069776;28;19920;-76
2023/03/23 04:58:44;;;;;;;;;;;19.80;57.80;;;;;;5070133;28;19920;-76
2023/03/23 05:01:31;;;;;;;;;;;19.90;57.70;;;;;;5069997;28;20286;-76
2023/03/23 05:04:10;;;;;;;;;;;19.70;57.50;;;;;;5070087;28;20364;-76
2023/03/23 05:06:36;;;;;;;;;;;19.80;57.70;;;;;;5070211;28;19934;-77
2023/03/23 05:09:11;;;;;;;;;;;19.70;57.80;;;;;;5069795;28;20295;-76
2023/03/23 05:11:38;;;;;;;;;;;19.60;57.80;;;;;;5069807;28;19920;-76
2023/03/23 05:14:04;;;;;;;;;;;19.60;57.90;;;;;;5069965;28;19998;-76
2023/03/23 05:16:31;;;;;;;;;;;19.70;58.00;;;;;;5069931;28;19916;-76
2023/03/23 05:18:58;;;;;;;;;;;19.70;58.10;;;;;;5069942;28;20261;-76
2023/03/23 05:21:26;;;;;;;;;;;19.70;58.20;;;;;;5070588;28;20382;-76
2023/03/23 05:23:54;;;;;;;;;;;19.60;58.00;;;;;;5069972;28;20328;-76
2023/03/23 05:26:20;;;;;;;;;;;19.80;57.90;;;;;;5069744;28;19912;-76
2023/03/23 05:28:52;;;;;;;;;;;19.80;57.80;;;;;;5069753;28;19909;-76
2023/03/23 05:31:24;;;;;;;;;;;19.70;58.00;;;;;;5069746;28;20287;-76
2023/03/23 05:33:50;;;;;;;;;;;19.60;57.90;;;;;;5069960;28;19908;-77
2023/03/23 05:36:24;;;;;;;;;;;19.60;57.90;;;;;;5069595;28;19912;-76
2023/03/23 05:39:06;;;;;;;;;;;19.80;58.00;;;;;;5069852;28;19920;-76
2023/03/23 05:41:51;;;;;;;;;;;19.50;58.00;;;;;;5070909;28;19908;-76
2023/03/23 05:44:17;;;;;;;;;;;19.70;58.10;;;;;;5069858;28;19994;-76
2023/03/23 05:46:50;;;;;;;;;;;19.60;58.10;;;;;;5070627;28;20015;-76
2023/03/23 05:49:17;;;;;;;;;;;19.60;58.10;;;;;;5073471;28;19961;-76
2023/03/23 05:51:45;;;;;;;;;;;19.80;58.20;;;;;;5051838;28;20055;-76
2023/03/23 05:54:13;;;;;;;;;;;19.70;58.00;;;;;;5035682;28;20372;-77
2023/03/23 05:56:40;;;;;;;;;;;19.70;58.00;;;;;;5051629;28;19913;-76
2023/03/23 05:59:25;;;;;;;;;;;19.70;57.80;;;;;;5051955;28;19964;-76
2023/03/23 06:01:55;;;;;;;;;;;19.90;57.70;;;;;;5035401;28;19913;-76
2023/03/23 06:04:24;;;;;;;;;;;19.80;57.40;;;;;;5051943;28;19908;-76
2023/03/23 06:07:13;;;;;;;;;;;19.90;57.30;;;;;;5051776;28;19996;-76
2023/03/23 06:09:41;;;;;;;;;;;20.00;57.60;;;;;;5004058;28;19955;-76
2023/03/23 06:12:27;;;;;;;;;;;20.00;57.40;;;;;;4992197;28;19980;-76
2023/03/23 06:15:05;;;;;;;;;;;20.00;57.30;;;;;;4992605;28;19913;-77
2023/03/23 06:17:55;;;;;;;;;;;20.10;57.20;;;;;;4975834;28;20289;-76
2023/03/23 06:20:24;;;;;;;;;;;20.00;56.90;;;;;;4992348;28;20008;-77
2023/03/23 06:22:54;;;;;;;;;;;20.30;57.00;;;;;;4997562;28;19983;-76
2023/03/23 06:25:30;;;;;;;;;;;20.20;56.80;;;;;;5031587;28;19913;-76
2023/03/23 06:27:57;;;;;;;;;;;20.20;56.60;;;;;;5031547;28;20679;-76
2023/03/23 06:30:24;;;;;;;;;;;20.20;56.50;;;;;;5031446;28;20315;-76
2023/03/23 06:32:50;;;;;;;;;;;20.30;56.50;;;;;;5015164;28;19979;-77
2023/03/23 06:35:22;;;;;;;;;;;20.40;56.30;;;;;;5014907;28;19913;-76
2023/03/23 06:38:11;;;;;;;;;;;20.40;56.10;;;;;;5031396;28;20000;-76
2023/03/23 06:40:46;;;;;;;;;;;20.50;56.00;;;;;;5031208;28;19917;-77
2023/03/23 06:43:13;;;;;;;;;;;20.40;55.90;;;;;;5031342;28;19979;-76
2023/03/23 06:45:40;;;;;;;;;;;20.60;55.80;;;;;;5031142;28;19963;-76
2023/03/23 06:48:44;;;;;;;;;;;20.60;55.80;;;;;;5011037;28;19921;-76
2023/03/23 06:51:15;;;;;;;;;;;20.50;55.60;;;;;;4994736;28;19999;-77
2023/03/23 06:53:46;;;;;;;;;;;20.60;55.60;;;;;;4994878;28;19956;-76
2023/03/23 06:56:13;;;;;;;;;;;20.60;55.40;;;;;;5011039;28;19916;-76
2023/03/23 06:58:45;;;;;;;;;;;20.60;55.40;;;;;;4993782;28;19975;-76
2023/03/23 07:01:12;;;;;;;;;;;20.60;55.40;;;;;;4994796;28;19925;-76
2023/03/23 07:03:43;;;;;;;;;;;20.60;55.30;;;;;;4994589;28;19953;-76
2023/03/23 07:06:11;;;;;;;;;;;20.60;55.20;;;;;;4994668;28;20008;-77
2023/03/23 07:08:45;;;;;;;;;;;20.60;55.10;;;;;;4994536;28;20076;-77
2023/03/23 07:11:16;;;;;;;;;;;20.70;55.10;;;;;;4979056;28;20281;-76
2023/03/23 07:13:42;;;;;;;;;;;20.60;54.90;;;;;;4994266;28;19913;-76
2023/03/23 07:16:10;;;;;;;;;;;20.60;54.90;;;;;;5011478;28;19916;-76
2023/03/23 07:18:37;;;;;;;;;;;20.70;55.00;;;;;;4986976;28;20311;-76
2023/03/23 07:21:06;;;;;;;;;;;20.60;54.90;;;;;;5071483;28;19924;-76
2023/03/23 07:23:32;;;;;;;;;;;20.50;54.90;;;;;;5071750;28;19966;-76
2023/03/23 07:26:03;;;;;;;;;;;20.60;55.00;;;;;;5071492;28;19912;-76
2023/03/23 07:28:36;;;;;;;;;;;20.60;54.90;;;;;;5071430;28;20287;-76
2023/03/23 07:31:13;;;;;;;;;;;20.60;54.80;;;;;;5071531;28;19912;-76
2023/03/23 07:33:39;;;;;;;;;;;20.70;54.80;;;;;;5071492;28;20404;-76
2023/03/23 07:36:07;;;;;;;;;;;20.60;54.80;;;;;;5071342;28;20356;-77
2023/03/23 07:38:36;;;;;;;;;;;20.70;54.90;;;;;;5071178;28;19938;-76
2023/03/23 07:41:03;;;;;;;;;;;20.70;54.80;;;;;;5071404;28;19920;-76
2023/03/23 07:43:31;;;;;;;;;;;20.70;54.70;;;;;;5072404;28;20000;-77
2023/03/23 07:45:57;;;;;;;;;;;20.80;54.50;;;;;;5072462;28;20395;-76
2023/03/23 07:48:28;;;;;;;;;;;20.90;54.60;;;;;;5049618;28;19913;-76
2023/03/23 07:50:55;;;;;;;;;;;20.80;54.40;;;;;;5033416;28;19920;-76
2023/03/23 07:53:23;;;;;;;;;;;20.80;54.40;;;;;;5033196;28;19912;-76
2023/03/23 07:55:57;;;;;;;;;;;20.80;54.30;;;;;;5033200;28;19919;-76
2023/03/23 07:58:46;;;;;;;;;;;20.90;54.40;;;;;;5049609;28;20048;-76
2023/03/23 08:01:12;;;;;;;;;;;21.00;54.30;;;;;;5033131;28;19924;-76
2023/03/23 08:03:39;;;;;;;;;;;21.10;54.30;;;;;;5033248;28;19909;-76
2023/03/23 08:06:34;;;;;;;;;;;21.00;54.00;;;;;;5033165;28;19967;-76
2023/03/23 08:09:23;;;;;;;;;;;20.80;53.70;;;;;;5032454;28;19915;-76
2023/03/23 08:12:11;;;;;;;;;;;21.00;53.90;;;;;;5032828;28;19925;-76
2023/03/23 08:14:53;;;;;;;;;;;21.00;53.90;;;;;;5049344;28;19908;-76
2023/03/23 08:17:36;;;;;;;;;;;20.90;53.80;;;;;;5032794;28;19908;-76
2023/03/23 08:20:25;;;;;;;;;;;21.00;53.80;;;;;;5068462;28;19916;-77
2023/03/23 08:23:00;;;;;;;;;;;21.10;54.00;;;;;;5071767;28;19908;-76
2023/03/23 08:25:38;;;;;;;;;;;21.00;53.90;;;;;;5071967;28;20008;-76
2023/03/23 08:28:24;;;;;;;;;;;21.00;53.90;;;;;;5071296;28;19915;-76
2023/03/23 08:31:16;;;;;;;;;;;21.00;53.90;;;;;;5029211;28;19909;-76
2023/03/23 08:34:17;;;;;;;;;;;21.00;53.80;;;;;;4951364;28;19961;-76
2023/03/23 08:37:06;;;;;;;;;;;21.00;53.90;;;;;;4951067;28;19911;-76
2023/03/23 08:39:51;;;;;;;;;;;21.00;53.90;;;;;;4951026;28;19926;-76
2023/03/23 08:42:32;;;;;;;;;;;21.00;53.80;;;;;;4935142;28;20025;-76
2023/03/23 08:45:20;;;;;;;;;;;21.10;53.90;;;;;;4951040;28;20008;-76
2023/03/23 08:48:07;;;;;;;;;;;21.20;53.80;;;;;;4935070;28;20116;-76
2023/03/23 08:50:35;;;;;;;;;;;21.10;53.70;;;;;;4951008;28;19917;-76
2023/03/23 08:53:01;;;;;;;;;;;21.00;53.70;;;;;;4951372;28;19921;-76
2023/03/23 08:55:44;;;;;;;;;;;21.00;53.80;;;;;;4918991;28;19914;-75
2023/03/23 08:58:22;;;;;;;;;;;21.20;53.80;;;;;;4912544;29;19967;-76
2023/03/23 09:01:10;;;;;;;;;;;21.30;53.80;;;;;;4912881;29;19919;-76
2023/03/23 09:03:51;;;;;;;;;;;21.20;53.60;;;;;;4912896;29;19910;-76
2023/03/23 09:06:20;;;;;;;;;;;21.30;53.70;;;;;;4912852;29;20030;-76
2023/03/23 09:08:46;;;;;;;;;;;21.30;53.60;;;;;;5009046;28;19912;-76
2023/03/23 09:11:12;;;;;;;;;;;21.30;53.50;;;;;;5048747;28;20007;-76
2023/03/23 09:13:38;;;;;;;;;;;21.20;53.40;;;;;;5049078;28;19921;-76
2023/03/23 09:16:05;;;;;;;;;;;21.30;53.40;;;;;;5048963;28;19908;-76
2023/03/23 09:18:32;;;;;;;;;;;21.30;53.50;;;;;;5048848;28;20403;-77
2023/03/23 09:20:58;;;;;;;;;;;21.30;53.50;;;;;;5048809;28;20483;-76
2023/03/23 09:23:24;;;;;;;;;;;21.40;53.40;;;;;;5052724;28;20312;-76
2023/03/23 09:25:51;;;;;;;;;;;21.40;53.50;;;;;;5052921;28;20052;-76
2023/03/23 09:28:18;;;;;;;;;;;21.30;53.50;;;;;;5054011;28;19956;-76
2023/03/23 09:30:45;;;;;;;;;;;21.40;53.50;;;;;;5075174;28;20368;-76
2023/03/23 09:33:11;;;;;;;;;;;21.20;53.40;;;;;;5075279;28;20283;-76
2023/03/23 09:35:38;;;;;;;;;;;21.20;53.40;;;;;;5074990;28;19924;-76
2023/03/23 09:38:04;;;;;;;;;;;21.30;53.70;;;;;;5074867;28;20283;-76
2023/03/23 09:40:53;;;;;;;;;;;21.30;53.70;;;;;;5075015;28;20390;-76
2023/03/23 09:43:22;;;;;;;;;;;21.10;53.60;;;;;;5074918;28;19912;-76
2023/03/23 09:46:00;;;;;;;;;;;21.20;53.60;;;;;;5074716;28;19918;-76
2023/03/23 09:48:33;;;;;;;;;;;21.30;53.70;;;;;;5074718;28;20006;-76
2023/03/23 09:51:07;;;;;;;;;;;21.30;53.50;;;;;;5074598;28;20260;-76
2023/03/23 09:53:38;;;;;;;;;;;21.20;53.60;;;;;;5074577;28;19912;-76
2023/03/23 09:56:10;;;;;;;;;;;21.40;53.80;;;;;;5074684;28;19912;-76
2023/03/23 09:58:58;;;;;;;;;;;21.30;53.80;;;;;;5074481;28;20383;-76
2023/03/23 10:01:35;;;;;;;;;;;21.40;53.80;;;;;;5073087;28;19920;-76
2023/03/23 10:04:05;;;;;;;;;;;21.30;53.70;;;;;;5074644;28;20284;-76
2023/03/23 10:06:31;;;;;;;;;;;21.40;53.70;;;;;;5074624;28;19935;-76
2023/03/23 10:08:57;;;;;;;;;;;21.40;53.70;;;;;;5074380;28;20368;-76
2023/03/23 10:11:33;;;;;;;;;;;21.40;53.70;;;;;;5072485;28;19909;-76
2023/03/23 10:14:09;;;;;;;;;;;21.50;53.70;;;;;;5054386;28;19913;-76
2023/03/23 10:16:52;;;;;;;;;;;21.40;53.70;;;;;;5036312;28;19964;-76
2023/03/23 10:19:20;;;;;;;;;;;21.50;53.70;;;;;;5054072;28;19920;-76
2023/03/23 10:21:54;;;;;;;;;;;21.60;53.70;;;;;;5054297;28;20380;-76
2023/03/23 10:24:29;;;;;;;;;;;21.50;52.80;;;;;;5054080;28;19916;-76
2023/03/23 10:27:05;;;;;;;;;;;21.40;53.10;;;;;;5054188;28;19921;-76
2023/03/23 10:29:39;;;;;;;;;;;21.40;53.70;;;;;;5053747;28;19920;-76
2023/03/23 10:32:11;;;;;;;;;;;21.30;53.70;;;;;;5053808;28;19919;-77
2023/03/23 10:34:39;;;;;;;;;;;21.40;53.70;;;;;;5053784;28;20284;-76
2023/03/23 10:37:09;;;;;;;;;;;21.50;53.80;;;;;;5053875;28;20280;-76
2023/03/23 10:39:54;;;;;;;;;;;21.40;53.80;;;;;;5053843;28;19916;-76
2023/03/23 10:42:28;;;;;;;;;;;21.40;53.00;;;;;;5053855;28;20296;-76
2023/03/23 10:44:56;;;;;;;;;;;21.40;53.80;;;;;;5053576;28;19916;-76
2023/03/23 10:47:22;;;;;;;;;;;21.30;53.90;;;;;;5035887;28;19908;-77
2023/03/23 10:50:02;;;;;;;;;;;21.40;53.90;;;;;;5053655;28;19909;-76
2023/03/23 10:52:37;;;;;;;;;;;21.30;53.90;;;;;;5053552;28;19909;-76
2023/03/23 10:55:03;;;;;;;;;;;21.30;53.90;;;;;;5053418;28;19909;-76
2023/03/23 10:57:31;;;;;;;;;;;21.30;54.00;;;;;;5053620;28;19924;-75
2023/03/23 11:00:06;;;;;;;;;;;21.40;54.00;;;;;;5036395;28;20386;-76
2023/03/23 11:02:42;;;;;;;;;;;21.40;54.00;;;;;;5053498;28;19913;-76
2023/03/23 11:05:22;;;;;;;;;;;21.30;54.00;;;;;;5053586;28;19916;-76
2023/03/23 11:07:50;;;;;;;;;;;21.30;54.00;;;;;;5053401;28;19962;-76
2023/03/23 11:10:20;;;;;;;;;;;21.40;54.00;;;;;;5052967;28;20389;-76
2023/03/23 11:12:46;;;;;;;;;;;21.60;53.70;;;;;;5053335;28;19944;-76
2023/03/23 11:15:24;;;;;;;;;;;21.40;54.00;;;;;;5053101;28;19915;-76
2023/03/23 11:18:02;;;;;;;;;;;21.60;54.00;;;;;;5053170;28;19913;-76
2023/03/23 11:20:29;;;;;;;;;;;21.50;54.00;;;;;;5034920;28;19921;-76
2023/03/23 11:22:55;;;;;;;;;;;21.50;54.00;;;;;;5053068;28;19912;-76
2023/03/23 11:25:22;;;;;;;;;;;21.60;54.00;;;;;;5053180;28;20003;-76
2023/03/23 11:27:48;;;;;;;;;;;21.50;54.00;;;;;;5034039;28;19908;-76
2023/03/23 11:30:25;;;;;;;;;;;21.60;54.00;;;;;;5052804;28;19909;-76
2023/03/23 11:32:52;;;;;;;;;;;21.40;53.90;;;;;;5052931;28;19916;-76
2023/03/23 11:35:20;;;;;;;;;;;21.50;54.10;;;;;;5052551;28;19974;-76
2023/03/23 11:37:57;;;;;;;;;;;21.50;54.10;;;;;;5052852;28;19915;-76
2023/03/23 11:40:24;;;;;;;;;;;21.40;54.00;;;;;;5052514;28;19916;-76
2023/03/23 11:42:53;;;;;;;;;;;21.40;54.00;;;;;;5052546;28;19913;-76
2023/03/23 11:45:19;;;;;;;;;;;21.50;54.10;;;;;;5052009;28;19909;-76
2023/03/23 11:48:03;;;;;;;;;;;21.50;53.60;;;;;;5052620;28;20367;-76
2023/03/23 11:50:32;;;;;;;;;;;21.60;54.00;;;;;;5010177;28;19913;-76
2023/03/23 11:52:58;;;;;;;;;;;21.50;53.80;;;;;;5010611;28;19913;-76
2023/03/23 11:55:54;;;;;;;;;;;21.40;53.80;;;;;;4993964;28;19917;-76
2023/03/23 11:58:21;;;;;;;;;;;21.50;54.20;;;;;;5010305;28;19920;-76
2023/03/23 12:00:58;;;;;;;;;;;21.30;54.10;;;;;;5009895;28;19988;-76
2023/03/23 12:03:26;;;;;;;;;;;21.40;54.30;;;;;;5010261;28;19909;-76
2023/03/23 12:05:52;;;;;;;;;;;21.40;52.80;;;;;;5010041;28;19938;-76
2023/03/23 12:08:21;;;;;;;;;;;21.50;54.30;;;;;;5010198;28;19917;-76
2023/03/23 12:11:04;;;;;;;;;;;21.40;54.20;;;;;;5009761;28;19916;-76
2023/03/23 12:13:32;;;;;;;;;;;21.50;54.30;;;;;;5047810;28;19937;-76
2023/03/23 12:16:04;;;;;;;;;;;21.40;54.20;;;;;;5032978;28;19909;-76
2023/03/23 12:18:53;;;;;;;;;;;21.40;54.20;;;;;;5049584;28;19916;-76
2023/03/23 12:21:27;;;;;;;;;;;21.40;54.20;;;;;;5001680;28;20063;-77
2023/03/23 12:24:00;;;;;;;;;;;21.60;54.30;;;;;;5013170;28;19945;-76
2023/03/23 12:26:31;;;;;;;;;;;21.50;54.30;;;;;;5029650;28;19913;-76
2023/03/23 12:29:10;;;;;;;;;;;21.50;54.30;;;;;;5029387;28;20554;-76
2023/03/23 12:31:55;;;;;;;;;;;21.50;54.20;;;;;;5029396;28;19931;-77
2023/03/23 12:34:39;;;;;;;;;;;21.50;54.20;;;;;;5029337;28;19916;-77
2023/03/23 12:37:08;;;;;;;;;;;21.50;54.20;;;;;;5029297;28;19909;-76
2023/03/23 12:39:43;;;;;;;;;;;21.50;53.80;;;;;;5029052;28;19921;-76
2023/03/23 12:42:35;;;;;;;;;;;21.50;53.50;;;;;;5029389;28;19912;-76
2023/03/23 12:45:18;;;;;;;;;;;21.50;54.20;;;;;;5029350;28;20408;-77
2023/03/23 12:48:03;;;;;;;;;;;21.50;54.20;;;;;;5029243;28;20401;-76
2023/03/23 12:50:41;;;;;;;;;;;21.50;54.20;;;;;;5029479;28;20027;-76
2023/03/23 12:53:13;;;;;;;;;;;21.50;53.90;;;;;;5012771;28;19913;-77
2023/03/23 12:55:44;;;;;;;;;;;21.50;54.20;;;;;;5028673;28;19943;-76
2023/03/23 12:58:15;;;;;;;;;;;21.60;54.20;;;;;;5046830;28;19908;-76
2023/03/23 13:00:54;;;;;;;;;;;21.50;54.20;;;;;;5071126;28;19924;-76
2023/03/23 13:03:44;;;;;;;;;;;21.50;53.70;;;;;;5071350;28;19989;-76
2023/03/23 13:06:09;;;;;;;;;;;21.40;54.20;;;;;;4989439;28;19976;-76
2023/03/23 13:08:35;;;;;;;;;;;21.40;54.20;;;;;;4989613;28;19910;-76
2023/03/23 13:11:08;;;;;;;;;;;21.50;54.40;;;;;;4989443;28;19913;-76
2023/03/23 13:13:43;;;;;;;;;;;21.50;54.40;;;;;;4973480;28;19936;-76
2023/03/23 13:16:16;;;;;;;;;;;21.50;54.10;;;;;;4973374;28;19910;-76
2023/03/23 13:18:49;;;;;;;;;;;21.50;54.40;;;;;;4989682;28;19913;-76
2023/03/23 13:21:30;;;;;;;;;;;21.40;54.30;;;;;;4989316;28;19918;-76
2023/03/23 13:23:59;;;;;;;;;;;21.40;54.20;;;;;;4973180;28;19949;-76
2023/03/23 13:26:26;;;;;;;;;;;21.40;54.30;;;;;;4989564;28;20097;-76
2023/03/23 13:29:09;;;;;;;;;;;21.50;54.40;;;;;;4989711;28;19917;-76
2023/03/23 13:31:36;;;;;;;;;;;21.60;54.40;;;;;;4989317;28;20336;-76
2023/03/23 13:34:05;;;;;;;;;;;21.40;54.30;;;;;;4989597;28;19914;-76
2023/03/23 13:36:36;;;;;;;;;;;21.50;54.40;;;;;;4989344;28;19910;-76
2023/03/23 13:39:04;;;;;;;;;;;21.50;54.40;;;;;;4989502;28;19913;-77
2023/03/23 13:41:30;;;;;;;;;;;21.50;54.30;;;;;;4989143;28;20013;-76
2023/03/23 13:44:16;;;;;;;;;;;21.60;54.30;;;;;;5056189;28;19972;-76
2023/03/23 13:46:53;;;;;;;;;;;21.60;54.20;;;;;;5069420;28;20253;-76
2023/03/23 13:49:22;;;;;;;;;;;21.50;54.30;;;;;;5069787;28;19919;-76
2023/03/23 13:51:56;;;;;;;;;;;21.50;54.30;;;;;;5071051;28;19916;-76
2023/03/23 13:54:22;;;;;;;;;;;21.50;54.40;;;;;;5071129;28;19962;-76
2023/03/23 13:56:48;;;;;;;;;;;21.40;54.30;;;;;;5070959;28;19908;-76
2023/03/23 13:59:16;;;;;;;;;;;21.50;54.40;;;;;;5070848;28;19965;-76
2023/03/23 14:01:42;;;;;;;;;;;21.50;54.40;;;;;;5070798;28;19916;-76
2023/03/23 14:04:16;;;;;;;;;;;21.40;54.30;;;;;;5069732;28;19919;-76
2023/03/23 14:06:43;;;;;;;;;;;21.50;54.30;;;;;;5071025;28;19912;-76
2023/03/23 14:09:23;;;;;;;;;;;21.50;54.30;;;;;;5072628;28;20371;-76
2023/03/23 14:11:49;;;;;;;;;;;21.60;54.30;;;;;;5068770;28;20364;-76
2023/03/23 14:14:21;;;;;;;;;;;21.50;54.40;;;;;;5054534;28;19912;-76
2023/03/23 14:16:53;;;;;;;;;;;21.50;54.40;;;;;;5054499;28;19912;-76
2023/03/23 14:19:21;;;;;;;;;;;21.50;54.50;;;;;;5054076;28;19909;-76
2023/03/23 14:21:55;;;;;;;;;;;21.40;54.40;;;;;;5054079;28;19913;-76
2023/03/23 14:24:23;;;;;;;;;;;21.50;54.50;;;;;;5054714;28;20011;-76
2023/03/23 14:26:52;;;;;;;;;;;21.50;54.30;;;;;;5054329;28;19909;-76
2023/03/23 14:29:18;;;;;;;;;;;21.40;54.40;;;;;;5053959;28;19916;-76
2023/03/23 14:31:44;;;;;;;;;;;21.40;54.40;;;;;;5053888;28;20058;-76
2023/03/23 14:34:12;;;;;;;;;;;21.50;54.50;;;;;;5054137;28;20280;-76
2023/03/23 14:36:39;;;;;;;;;;;21.40;54.40;;;;;;5018392;28;19912;-76
2023/03/23 14:39:11;;;;;;;;;;;21.50;54.40;;;;;;5053921;28;20360;-76
2023/03/23 14:41:38;;;;;;;;;;;21.60;54.40;;;;;;5053809;28;19917;-77
2023/03/23 14:44:13;;;;;;;;;;;21.50;54.50;;;;;;5053488;28;19916;-76